createdAt,value
2022-12-31T00:01:52.817Z,99978.81
2022-12-31T00:04:25.654Z,99982.84
2022-12-31T00:06:58.509Z,99981.47
2022-12-31T00:09:31.352Z,99972.63
2022-12-31T00:12:04.473Z,99965.38
2022-12-31T00:14:37.511Z,99973.59
2022-12-31T00:17:11.769Z,99970.09
2022-12-31T00:19:44.593Z,99963.06
2022-12-31T00:22:17.553Z,99966.75
2022-12-31T00:24:50.424Z,99962.03
2022-12-31T00:27:23.284Z,99965.38
2022-12-31T00:29:59.508Z,99962.03
2022-12-31T00:32:38.393Z,99949.47
2022-12-31T00:35:11.242Z,99947.31
2022-12-31T00:37:44.189Z,99951.84
2022-12-31T00:40:17.194Z,99963.06
2022-12-31T00:42:50.003Z,99978.31
2022-12-31T00:45:23.214Z,99961.72
2022-12-31T00:47:57.399Z,99962.72
2022-12-31T00:50:30.203Z,99960.03
2022-12-31T00:53:03.103Z,99951.97
2022-12-31T00:55:35.911Z,99949.31
2022-12-31T00:58:08.830Z,99943.78
2022-12-31T01:00:41.698Z,99937.59
2022-12-31T01:03:15.909Z,99931.72
2022-12-31T01:05:50.233Z,99919.31
2022-12-31T01:08:23.014Z,99915.16
2022-12-31T01:11:13.588Z,99904.44
2022-12-31T01:13:46.735Z,99918.50
2022-12-31T01:16:22.590Z,99912.47
2022-12-31T01:18:59.117Z,99910.28
2022-12-31T01:21:32.242Z,99893.34
2022-12-31T01:24:05.633Z,99906.44
2022-12-31T01:26:39.075Z,99920.69
2022-12-31T01:29:12.455Z,99916.84
2022-12-31T01:31:45.320Z,99917.16
2022-12-31T01:34:20.096Z,99902.91
2022-12-31T01:36:52.934Z,99918.34
2022-12-31T01:39:25.877Z,99920.81
2022-12-31T01:41:59.397Z,99914.81
2022-12-31T01:44:54.089Z,99907.28
2022-12-31T01:47:36.610Z,99893.19
2022-12-31T01:50:15.686Z,99898.41
2022-12-31T01:52:52.654Z,99893.03
2022-12-31T01:55:29.169Z,99892.03
2022-12-31T01:58:07.757Z,99890.38
2022-12-31T02:00:41.145Z,99875.94
2022-12-31T02:03:14.716Z,99889.00
2022-12-31T02:05:52.715Z,99890.38
2022-12-31T02:08:25.503Z,99886.69
2022-12-31T02:10:58.413Z,99877.94
2022-12-31T02:13:31.409Z,99864.06
2022-12-31T02:16:11.427Z,99876.81
2022-12-31T02:18:53.288Z,99877.31
2022-12-31T02:21:43.572Z,99872.28
2022-12-31T02:24:37.758Z,99875.97
2022-12-31T02:27:14.986Z,99861.25
2022-12-31T02:30:14.622Z,99870.97
2022-12-31T02:33:07.895Z,99878.34
2022-12-31T02:35:48.174Z,99867.63
2022-12-31T02:38:24.432Z,99864.97
2022-12-31T02:40:57.744Z,99871.81
2022-12-31T02:43:30.612Z,99863.94
2022-12-31T02:46:12.901Z,99860.44
2022-12-31T02:48:50.190Z,99839.81
2022-12-31T02:51:38.833Z,99843.78
2022-12-31T02:54:23.201Z,99848.16
2022-12-31T02:57:06.885Z,99850.31
2022-12-31T03:00:06.319Z,99845.81
2022-12-31T03:02:43.926Z,99840.06
2022-12-31T03:05:19.780Z,99838.69
2022-12-31T03:07:52.594Z,99825.84
2022-12-31T03:10:25.500Z,99843.00
2022-12-31T03:12:58.616Z,99875.22
2022-12-31T03:15:34.241Z,99924.09
2022-12-31T03:18:10.411Z,99954.78
2022-12-31T03:21:02.233Z,99969.22
2022-12-31T03:23:37.654Z,99955.94
2022-12-31T03:26:12.250Z,99957.09
2022-12-31T03:28:47.562Z,99951.88
2022-12-31T03:31:20.722Z,99985.59
2022-12-31T03:33:54.893Z,99958.25
2022-12-31T03:36:27.679Z,99957.09
2022-12-31T03:39:00.583Z,99963.78
2022-12-31T03:41:33.361Z,99955.88
2022-12-31T03:44:06.523Z,99955.06
2022-12-31T03:46:39.349Z,99953.38
2022-12-31T03:49:13.509Z,99945.66
2022-12-31T03:51:46.272Z,99946.16
2022-12-31T03:54:19.027Z,99939.28
2022-12-31T03:56:55.357Z,99945.66
2022-12-31T03:59:33.312Z,99937.59
2022-12-31T04:02:06.406Z,99940.94
2022-12-31T04:04:40.707Z,99938.44
2022-12-31T04:07:13.447Z,99960.38
2022-12-31T04:09:46.983Z,99968.75
2022-12-31T04:12:19.776Z,99950.28
2022-12-31T04:14:52.618Z,99955.50
2022-12-31T04:17:25.887Z,99942.25
2022-12-31T04:20:00.080Z,99944.94
2022-12-31T04:22:32.939Z,99949.16
2022-12-31T04:25:10.999Z,99920.16
2022-12-31T04:27:44.457Z,99926.53
2022-12-31T04:30:17.429Z,99919.50
2022-12-31T04:32:50.260Z,99917.16
2022-12-31T04:35:24.427Z,99913.81
2022-12-31T04:37:57.216Z,99910.97
2022-12-31T04:40:29.985Z,99909.81
2022-12-31T04:43:02.771Z,99902.44
2022-12-31T04:45:35.639Z,99905.16
2022-12-31T04:48:08.479Z,99886.72
2022-12-31T04:50:42.618Z,99910.19
2022-12-31T04:53:15.427Z,99913.69
2022-12-31T04:55:48.277Z,99912.34
2022-12-31T04:58:21.458Z,99906.16
2022-12-31T05:00:55.454Z,99888.56
2022-12-31T05:03:28.925Z,99897.81
2022-12-31T05:06:05.068Z,99892.06
2022-12-31T05:08:38.084Z,99876.09
2022-12-31T05:11:11.461Z,99888.59
2022-12-31T05:13:44.535Z,99881.56
2022-12-31T05:16:17.391Z,99880.06
2022-12-31T05:18:50.212Z,99888.19
2022-12-31T05:21:24.379Z,99887.34
2022-12-31T05:23:57.197Z,99878.06
2022-12-31T05:26:30.202Z,99881.56
2022-12-31T05:29:03.028Z,99885.03
2022-12-31T05:31:35.907Z,99879.56
2022-12-31T05:34:08.712Z,99904.66
2022-12-31T05:36:42.893Z,99893.34
2022-12-31T05:39:15.892Z,99893.31
2022-12-31T05:41:48.780Z,99892.84
2022-12-31T05:44:21.620Z,99908.91
2022-12-31T05:46:54.369Z,99917.28
2022-12-31T05:49:27.142Z,99897.13
2022-12-31T05:52:01.334Z,99893.75
2022-12-31T05:54:34.306Z,99875.75
2022-12-31T05:57:07.726Z,99931.28
2022-12-31T05:59:40.567Z,99910.06
2022-12-31T06:02:13.549Z,99905.50
2022-12-31T06:04:46.476Z,99918.13
2022-12-31T06:07:21.819Z,99908.00
2022-12-31T06:09:54.637Z,99932.88
2022-12-31T06:12:27.742Z,99918.47
2022-12-31T06:15:00.601Z,99946.84
2022-12-31T06:17:35.754Z,99937.66
2022-12-31T06:20:13.109Z,99948.31
2022-12-31T06:22:47.650Z,99942.66
2022-12-31T06:25:20.465Z,99944.22
2022-12-31T06:27:53.689Z,99950.47
2022-12-31T06:30:26.923Z,99960.47
2022-12-31T06:32:59.719Z,99966.09
2022-12-31T06:35:32.558Z,99980.56
2022-12-31T06:38:06.777Z,99974.34
2022-12-31T06:40:39.611Z,99987.16
2022-12-31T06:43:12.414Z,99995.16
2022-12-31T06:45:46.637Z,99997.78
2022-12-31T06:48:19.653Z,99988.28
2022-12-31T06:50:52.483Z,100007.59
2022-12-31T06:53:26.971Z,99998.63
2022-12-31T06:56:05.875Z,99996.09
2022-12-31T06:58:39.146Z,100014.00
2022-12-31T07:01:29.106Z,100017.66
2022-12-31T07:04:11.667Z,100008.16
2022-12-31T07:06:49.651Z,100006.19
2022-12-31T07:09:33.286Z,100022.16
2022-12-31T07:12:15.081Z,100007.44
2022-12-31T07:14:53.933Z,99987.47
2022-12-31T07:17:34.122Z,100021.59
2022-12-31T07:20:12.017Z,100028.88
2022-12-31T07:22:45.612Z,100006.50
2022-12-31T07:25:23.284Z,100026.00
2022-12-31T07:28:11.353Z,100014.84
2022-12-31T07:30:52.706Z,100016.03
2022-12-31T07:33:35.473Z,100025.34
2022-12-31T07:36:18.288Z,100027.53
2022-12-31T07:38:56.723Z,100027.41
2022-12-31T07:41:48.129Z,100030.34
2022-12-31T07:44:43.275Z,100036.25
2022-12-31T07:47:22.536Z,99993.78
2022-12-31T07:49:56.162Z,100018.09
2022-12-31T07:52:29.746Z,100039.38
2022-12-31T07:55:03.651Z,100028.50
2022-12-31T07:57:47.299Z,100023.41
2022-12-31T08:00:20.796Z,100024.31
2022-12-31T08:03:15.607Z,100049.81
2022-12-31T08:05:59.459Z,100031.84
2022-12-31T08:08:37.524Z,100036.69
2022-12-31T08:11:19.660Z,100043.94
2022-12-31T08:13:56.981Z,100040.22
2022-12-31T08:16:30.760Z,100076.38
2022-12-31T08:19:04.105Z,100065.34
2022-12-31T08:21:49.216Z,100050.09
2022-12-31T08:24:31.592Z,100063.28
2022-12-31T08:27:10.584Z,100063.66
2022-12-31T08:29:55.310Z,100050.16
2022-12-31T08:32:36.218Z,100070.34
2022-12-31T08:35:22.993Z,100051.00
2022-12-31T08:38:03.646Z,100074.94
2022-12-31T08:40:48.601Z,100054.06
2022-12-31T08:43:38.598Z,100071.91
2022-12-31T08:46:20.039Z,100051.72
2022-12-31T08:48:53.282Z,100068.63
2022-12-31T08:51:27.840Z,100062.22
2022-12-31T08:54:01.250Z,100081.97
2022-12-31T08:56:38.599Z,100060.56
2022-12-31T08:59:25.457Z,100054.72
2022-12-31T09:02:30.725Z,100071.06
2022-12-31T09:05:16.916Z,100071.56
2022-12-31T09:08:04.318Z,100073.69
2022-12-31T09:10:46.246Z,100076.69
2022-12-31T09:13:30.585Z,100084.13
2022-12-31T09:16:12.533Z,100089.03
2022-12-31T09:18:45.820Z,100099.84
2022-12-31T09:21:20.372Z,100152.06
2022-12-31T09:23:53.665Z,100128.66
2022-12-31T09:26:41.978Z,100157.22
2022-12-31T09:29:28.977Z,100137.59
2022-12-31T09:32:10.582Z,100151.34
2022-12-31T09:34:53.966Z,100141.59
2022-12-31T09:37:39.515Z,100152.03
2022-12-31T09:40:31.984Z,100152.28
2022-12-31T09:43:37.254Z,100177.38
2022-12-31T09:46:49.159Z,100186.13
2022-12-31T09:49:50.177Z,100200.03
2022-12-31T09:52:31.822Z,100199.78
2022-12-31T09:55:25.052Z,100215.28
2022-12-31T09:58:08.213Z,100222.50
2022-12-31T10:00:45.299Z,100212.72
2022-12-31T10:03:37.549Z,100211.88
2022-12-31T10:06:22.939Z,100233.38
2022-12-31T10:09:11.639Z,100225.22
2022-12-31T10:12:24.733Z,100248.00
2022-12-31T10:15:09.950Z,100228.13
2022-12-31T10:17:56.209Z,100220.81
2022-12-31T10:20:48.912Z,100232.28
2022-12-31T10:23:46.867Z,100242.56
2022-12-31T10:26:44.606Z,100237.16
2022-12-31T10:29:26.449Z,100244.22
2022-12-31T10:32:15.408Z,100228.06
2022-12-31T10:34:56.438Z,100233.25
2022-12-31T10:37:35.959Z,100250.41
2022-12-31T10:40:26.367Z,100247.38
2022-12-31T10:43:34.985Z,100233.31
2022-12-31T10:46:36.144Z,100245.91
2022-12-31T10:49:38.158Z,100236.25
2022-12-31T10:53:02.015Z,100251.16
2022-12-31T10:55:52.301Z,100251.16
2022-12-31T10:58:56.219Z,100245.47
2022-12-31T11:01:43.101Z,100258.22
2022-12-31T11:04:49.506Z,100257.00
2022-12-31T11:07:46.916Z,100244.03
2022-12-31T11:10:59.580Z,100240.06
2022-12-31T11:14:07.626Z,100222.06
2022-12-31T11:16:59.747Z,100223.47
2022-12-31T11:19:42.412Z,100226.75
2022-12-31T11:22:43.632Z,100227.06
2022-12-31T11:25:29.983Z,100204.44
2022-12-31T11:28:13.746Z,100222.94
2022-12-31T11:31:02.889Z,100243.13
2022-12-31T11:33:52.125Z,100239.59
2022-12-31T11:36:34.071Z,100230.41
2022-12-31T11:39:31.126Z,100230.28
2022-12-31T11:42:11.965Z,100235.63
2022-12-31T11:44:50.498Z,100251.50
2022-12-31T11:51:06.530Z,100237.75
2022-12-31T11:53:50.900Z,100240.44
2022-12-31T11:56:29.193Z,100245.19
2022-12-31T11:59:07.732Z,100239.16
2022-12-31T12:01:55.092Z,100248.81
2022-12-31T12:04:28.464Z,100242.97
2022-12-31T12:07:02.829Z,100235.97
2022-12-31T12:09:36.541Z,100243.53
2022-12-31T12:12:09.474Z,100223.81
2022-12-31T12:14:44.071Z,100248.81
2022-12-31T12:17:22.794Z,100236.47
2022-12-31T12:19:56.641Z,100235.97
2022-12-31T12:22:31.812Z,100235.63
2022-12-31T12:25:08.453Z,100230.31
2022-12-31T12:27:41.284Z,100240.63
2022-12-31T12:30:20.952Z,100235.53
2022-12-31T12:32:55.883Z,100254.22
2022-12-31T12:35:31.733Z,100243.59
2022-12-31T12:38:08.181Z,100249.94
2022-12-31T12:40:41.660Z,100230.16
2022-12-31T12:43:24.100Z,100244.91
2022-12-31T12:46:00.847Z,100240.88
2022-12-31T12:48:40.799Z,100263.88
2022-12-31T12:51:28.317Z,100238.56
2022-12-31T12:54:09.370Z,100241.91
2022-12-31T12:56:52.986Z,100256.81
2022-12-31T12:59:45.953Z,100261.81
2022-12-31T13:02:52.631Z,100276.97
2022-12-31T13:05:37.342Z,100296.22
2022-12-31T13:08:25.575Z,100294.22
2022-12-31T13:11:17.821Z,100243.91
2022-12-31T13:14:00.060Z,100293.47
2022-12-31T13:16:41.420Z,100262.75
2022-12-31T13:19:20.597Z,100261.88
2022-12-31T13:22:02.548Z,100273.66
2022-12-31T13:24:52.845Z,100285.22
2022-12-31T13:27:31.508Z,100265.59
2022-12-31T13:30:15.095Z,100275.09
2022-12-31T13:32:52.570Z,100270.22
2022-12-31T13:35:29.780Z,100244.00
2022-12-31T13:38:06.268Z,100252.63
2022-12-31T13:40:45.779Z,100269.75
2022-12-31T13:43:26.822Z,100240.31
2022-12-31T13:46:09.330Z,100259.44
2022-12-31T13:48:50.548Z,100264.78
2022-12-31T13:51:30.901Z,100251.09
2022-12-31T13:54:11.615Z,100259.09
2022-12-31T13:56:46.464Z,100272.88
2022-12-31T13:59:24.544Z,100254.81
2022-12-31T14:02:05.617Z,100259.44
2022-12-31T14:04:44.254Z,100274.91
2022-12-31T14:07:21.590Z,100259.63
2022-12-31T14:09:55.896Z,100281.25
2022-12-31T14:12:36.892Z,100282.22
2022-12-31T14:15:19.545Z,100266.50
2022-12-31T14:18:04.145Z,100275.28
2022-12-31T14:20:46.061Z,100269.63
2022-12-31T14:23:32.093Z,100254.91
2022-12-31T14:26:10.741Z,100286.09
2022-12-31T14:28:48.339Z,100265.44
2022-12-31T14:31:34.933Z,100268.50
2022-12-31T14:34:14.223Z,100269.56
2022-12-31T14:36:58.907Z,100273.22
2022-12-31T14:39:46.409Z,100274.91
2022-12-31T14:42:30.205Z,100265.84
2022-12-31T14:45:18.730Z,100272.22
2022-12-31T14:47:59.182Z,100280.25
2022-12-31T14:50:34.523Z,100272.75
2022-12-31T14:53:09.734Z,100277.84
2022-12-31T14:55:42.530Z,100293.53
2022-12-31T14:58:28.911Z,100289.16
2022-12-31T15:01:04.482Z,100270.91
2022-12-31T15:03:45.697Z,100288.28
2022-12-31T15:06:55.541Z,100304.09
2022-12-31T15:10:00.473Z,100303.81
2022-12-31T15:12:52.458Z,100313.53
2022-12-31T15:15:35.941Z,100300.41
2022-12-31T15:18:27.330Z,100289.13
2022-12-31T15:21:17.795Z,100320.66
2022-12-31T15:23:50.709Z,100330.31
2022-12-31T15:26:25.751Z,100320.03
2022-12-31T15:29:02.533Z,100325.41
2022-12-31T15:31:37.300Z,100334.50
2022-12-31T15:34:24.722Z,100357.66
2022-12-31T15:37:00.768Z,100338.19
2022-12-31T15:39:42.542Z,100330.59
2022-12-31T15:42:47.165Z,100326.75
2022-12-31T15:45:28.782Z,100322.38
2022-12-31T15:48:08.009Z,100325.22
2022-12-31T15:50:42.799Z,100325.63
2022-12-31T15:53:26.044Z,100337.75
2022-12-31T15:56:01.010Z,100334.06
2022-12-31T15:58:37.561Z,100343.66
2022-12-31T16:01:15.257Z,100316.38
2022-12-31T16:03:52.516Z,100325.66
2022-12-31T16:06:28.408Z,100330.66
2022-12-31T16:11:55.810Z,100324.78
2022-12-31T16:14:35.851Z,100330.66
2022-12-31T16:17:31.186Z,100334.00
2022-12-31T16:20:22.527Z,100320.94
2022-12-31T16:22:58.457Z,100326.13
2022-12-31T16:25:34.286Z,100321.97
2022-12-31T16:28:07.172Z,100315.88
2022-12-31T16:30:41.122Z,100318.91
2022-12-31T16:33:15.954Z,100317.56
2022-12-31T16:35:55.200Z,100334.22
2022-12-31T16:38:33.643Z,100323.56
2022-12-31T16:41:18.434Z,100323.38
2022-12-31T16:43:51.670Z,100313.47
2022-12-31T16:46:29.760Z,100317.50
2022-12-31T16:49:08.705Z,100315.22
2022-12-31T16:51:49.517Z,100310.81
2022-12-31T16:54:26.737Z,100326.13
2022-12-31T16:57:01.940Z,100308.41
2022-12-31T16:59:41.079Z,100312.78
2022-12-31T17:02:19.394Z,100324.06
2022-12-31T17:04:56.254Z,100303.88
2022-12-31T17:07:40.221Z,100284.66
2022-12-31T17:10:21.408Z,100295.97
2022-12-31T17:13:27.072Z,100296.66
2022-12-31T17:15:52.331Z,100301.50
2022-12-31T17:18:27.636Z,100294.13
2022-12-31T17:21:09.967Z,100296.25
2022-12-31T17:23:49.600Z,100292.53
2022-12-31T17:26:25.964Z,100290.53
2022-12-31T17:29:02.333Z,100287.81
2022-12-31T17:31:37.735Z,100298.94
2022-12-31T17:34:24.699Z,100274.72
2022-12-31T17:37:18.266Z,100263.81
2022-12-31T17:39:52.534Z,100274.03
2022-12-31T17:42:33.909Z,100274.72
2022-12-31T17:45:16.561Z,100274.41
2022-12-31T17:47:53.543Z,100293.53
2022-12-31T17:50:28.082Z,100287.84
2022-12-31T17:53:09.964Z,100262.94
2022-12-31T17:55:45.327Z,100281.13
2022-12-31T17:58:27.694Z,100272.88
2022-12-31T18:01:07.123Z,100293.72
2022-12-31T18:03:40.213Z,100286.47
2022-12-31T18:06:16.828Z,100295.53
2022-12-31T18:08:49.936Z,100290.88
2022-12-31T18:11:25.296Z,100301.97
2022-12-31T18:14:00.955Z,100275.88
2022-12-31T18:16:35.471Z,100267.66
2022-12-31T18:19:23.588Z,100278.44
2022-12-31T18:22:05.945Z,100270.03
2022-12-31T18:24:38.808Z,100279.44
2022-12-31T18:27:17.406Z,100288.53
2022-12-31T18:29:50.400Z,100282.50
2022-12-31T18:32:27.118Z,100280.66
2022-12-31T18:35:00.276Z,100274.44
2022-12-31T18:37:35.284Z,100293.97
2022-12-31T18:40:08.940Z,100292.94
2022-12-31T18:42:42.232Z,100306.41
2022-12-31T18:45:17.716Z,100271.25
2022-12-31T18:47:52.019Z,100259.84
2022-12-31T18:50:25.199Z,100283.84
2022-12-31T18:52:58.169Z,100279.81
2022-12-31T18:55:37.215Z,100280.84
2022-12-31T18:58:11.821Z,100278.47
2022-12-31T19:00:44.915Z,100285.28
2022-12-31T19:03:20.999Z,100303.09
2022-12-31T19:05:54.076Z,100293.63
2022-12-31T19:08:26.878Z,100282.25
2022-12-31T19:10:59.645Z,100291.84
2022-12-31T19:13:32.450Z,100290.28
2022-12-31T19:16:05.654Z,100288.97
2022-12-31T19:18:39.814Z,100288.34
2022-12-31T19:21:17.176Z,100287.63
2022-12-31T19:23:51.456Z,100282.03
2022-12-31T19:26:24.308Z,100276.22
2022-12-31T19:28:57.193Z,100281.75
2022-12-31T19:31:30.079Z,100280.59
2022-12-31T19:34:04.304Z,100274.53
2022-12-31T19:36:43.724Z,100287.63
2022-12-31T19:39:20.084Z,100290.50
2022-12-31T19:41:58.775Z,100291.03
2022-12-31T19:44:32.089Z,100269.19
2022-12-31T19:47:04.968Z,100306.50
2022-12-31T19:49:39.889Z,100311.22
2022-12-31T19:52:12.859Z,100313.06
2022-12-31T19:54:45.817Z,100309.69
2022-12-31T19:57:18.581Z,100332.91
2022-12-31T19:59:51.307Z,100317.03
2022-12-31T20:02:24.300Z,100306.63
2022-12-31T20:04:58.652Z,100305.97
2022-12-31T20:07:31.546Z,100316.38
2022-12-31T20:10:05.308Z,100322.97
2022-12-31T20:12:44.083Z,100338.44
2022-12-31T20:15:18.064Z,100333.38
2022-12-31T20:17:50.911Z,100330.69
2022-12-31T20:20:25.261Z,100332.09
2022-12-31T20:22:58.754Z,100353.22
2022-12-31T20:25:31.580Z,100333.06
2022-12-31T20:28:04.369Z,100355.91
2022-12-31T20:30:38.507Z,100361.97
2022-12-31T20:33:17.333Z,100372.88
2022-12-31T20:35:53.102Z,100366.38
2022-12-31T20:38:25.905Z,100367.34
2022-12-31T20:41:04.187Z,100384.69
2022-12-31T20:43:37.807Z,100376.25
2022-12-31T20:46:15.811Z,100368.88
2022-12-31T20:48:50.956Z,100373.25
2022-12-31T20:51:26.603Z,100377.16
2022-12-31T20:54:01.633Z,100372.75
2022-12-31T20:56:36.122Z,100401.31
2022-12-31T20:59:10.124Z,100395.94
2022-12-31T21:02:19.554Z,100375.06
2022-12-31T21:04:35.861Z,100382.16
2022-12-31T21:07:10.098Z,100389.66
2022-12-31T21:09:42.929Z,100386.78
2022-12-31T21:12:33.583Z,100391.03
2022-12-31T21:15:07.511Z,100383.06
2022-12-31T21:17:40.408Z,100367.63
2022-12-31T21:20:13.494Z,100409.03
2022-12-31T21:22:48.241Z,100364.63
2022-12-31T21:25:21.578Z,100382.78
2022-12-31T21:27:54.417Z,100393.53
2022-12-31T21:30:27.331Z,100397.56
2022-12-31T21:33:00.125Z,100398.44
2022-12-31T21:35:44.441Z,100409.69
2022-12-31T21:38:21.122Z,100399.59
2022-12-31T21:40:54.248Z,100400.28
2022-12-31T21:43:27.176Z,100407.16
2022-12-31T21:46:04.059Z,100396.88
2022-12-31T21:48:37.038Z,100421.84
2022-12-31T21:51:14.079Z,100417.78
2022-12-31T21:53:48.309Z,100411.38
2022-12-31T21:56:21.617Z,100412.38
2022-12-31T21:59:13.396Z,100418.25
2022-12-31T22:02:02.997Z,100406.31
2022-12-31T22:05:01.310Z,100412.66
2022-12-31T22:07:28.653Z,100422.78
2022-12-31T22:10:02.935Z,100412.47
2022-12-31T22:12:35.832Z,100425.91
2022-12-31T22:15:15.082Z,100438.25
2022-12-31T22:17:48.860Z,100428.16
2022-12-31T22:20:27.477Z,100442.88
2022-12-31T22:23:00.570Z,100432.75
2022-12-31T22:25:35.756Z,100440.53
2022-12-31T22:31:01.798Z,100430.13
2022-12-31T22:33:35.194Z,100443.25
2022-12-31T22:36:11.411Z,100448.28
2022-12-31T22:38:45.084Z,100447.13
2022-12-31T22:41:21.112Z,100438.69
2022-12-31T22:44:02.603Z,100449.78
2022-12-31T22:46:37.087Z,100442.69
2022-12-31T22:49:11.538Z,100471.53
2022-12-31T22:51:57.162Z,100455.63
2022-12-31T22:54:31.729Z,100466.97
2022-12-31T22:57:05.929Z,100465.13
2022-12-31T22:59:38.917Z,100469.19
2022-12-31T23:02:12.087Z,100461.34
2022-12-31T23:04:45.312Z,100454.00
2022-12-31T23:07:18.113Z,100473.09
2022-12-31T23:10:08.536Z,100446.09
2022-12-31T23:12:42.686Z,100461.41
2022-12-31T23:15:33.510Z,100468.72
2022-12-31T23:18:24.299Z,100472.09
2022-12-31T23:21:15.072Z,100463.03
2022-12-31T23:23:48.119Z,100468.81
2022-12-31T23:26:20.918Z,100460.47
2022-12-31T23:28:55.093Z,100462.66
2022-12-31T23:31:28.890Z,100448.16
2022-12-31T23:34:01.780Z,100458.78
2022-12-31T23:36:34.648Z,100449.19
2022-12-31T23:39:07.483Z,100450.06
2022-12-31T23:41:40.568Z,100469.06
2022-12-31T23:44:14.741Z,100466.72
2022-12-31T23:46:47.713Z,100462.94
2022-12-31T23:49:20.577Z,100479.97
2022-12-31T23:51:53.524Z,100459.75
2022-12-31T23:54:26.885Z,100460.63
2022-12-31T23:57:00.017Z,100456.88
2022-12-31T23:59:34.393Z,100463.78
